Kezdőlap
METAR-TAF:

METAR-TAF

Repülőterek :

Valence, Franciaország

földrajzi szélesség: 44-54-58N, földrajzi hosszúság: 4-58-06E, magasság: 160 m

Jelenlegi meteorológiai megfigyelések

A jelentés 21 perccel ezelõtt készült, 17:30 UTC
Dél-délnyugati szél 11 kt
Hőmérséklet 14°C
Páratartalom 51%
Légköri nyomás 1013 hPa
Látótávolság 10 km, vagy több
felhőtlen 1500 m magasságban, és nincs gomolyfelhõ

METAR: LFLU 011730Z AUTO 20011KT CAVOK 14/04 Q1013

Idő: 19:51 (17:51 UTC)


TAF: hiányzik

Meteorológiai megfigyelések és előrejelzések több, mint 4000 repülőtéren (METAR és TAF jelentéseket).

A térképen piros és sárga pontok jelzik az elérhető meteorológiai állomásokat.

Mozgassa az egeret a pont fölött, hogy megjelenjen az állomás neve.

Azután kattintson az időjárási megfigyelések és előrejelzések megtekintéséhez.

A térkép megváltoztatása: kattintson a fekete keresztel jelölt zöld gombra ráközelítéshez, a vonallal jelölt zöld gombra távolításhoz, vagy a zöld nyilakra a szomszédos térképek eléréséhez.


METAR-TAF: